Top Controllers this Month

Dave LaPlace 861872
32:04

Thomas Smith 1505007
27:28

Ethan Best 1458012
23:02

Tony Koch 1106668
21:54

Tyler Dola 1532431
12:31

  Online Controllers

No controllers online.

  View Our Airspace

  Weather

CYYC - Calgary International Airport   VFR
CYYC 240700Z 03005KT 340V060 6SM FU FEW230 14/01 A3013 RMK FU1CI1 CI TR SLP200 DENSITY ALT 4100FT

CYEG - Edmonton International Airport   VFR
CYEG 240700Z 22003KT 20SM FEW230 09/06 A3005 RMK CI1 SLP182

CYXY - Whitehorse / Erik Nielsen International Airport   VFR
CYXY 240700Z 15009KT 25SM SCT070 BKN220 13/05 A2993 RMK AC4CI3 SLP150 DENSITY ALT 2600FT

CYZF - Yellowknife International Airport   VFR
CYZF 240700Z 02009KT 15SM FEW024 FEW240 13/12 A2972 RMK SC2CI1 CI TR SLP072 DENSITY ALT 900FT

CYMM - Fort McMurray Airport   VFR
CYMM 240726Z AUTO 25006KT 9SM OVC091 15/13 A2979 RMK SLP098 DENSITY ALT 1600FT

CYQF - Red Deer Regional Airport   VFR
CYQF 240700Z 18004KT 15SM BKN100 09/06 A3010 RMK AC5 SLP201

CZVL - Edmonton / Villeneuve Airport   VFR
CZVL 240700Z AUTO 28004KT 9SM CLR 15/06 A3003 RMK SLP170 DENSITY ALT 2700FT

CYBW - Calgary / Springbank Airport   VFR
CYBW 240700Z AUTO 30010G15KT 9SM CLR 12/02 A3015 RMK SLP205 DENSITY ALT 4300FT

CYOD - CFB Cold Lake   VFR
CYOD 240700Z 25008KT 15SM SKC 15/10 A2990 RMK DA2412FT SLP129